createdAt,value
2022-11-04T00:02:09.675Z,2.95
2022-11-04T00:07:31.510Z,2.92
2022-11-04T00:12:33.250Z,3.10
2022-11-04T00:17:35.010Z,3.38
2022-11-04T00:22:56.216Z,3.05
2022-11-04T00:28:33.159Z,2.60
2022-11-04T00:33:34.945Z,2.83
2022-11-04T00:38:36.697Z,2.95
2022-11-04T00:43:38.436Z,3.35
2022-11-04T00:48:40.380Z,2.80
2022-11-04T00:53:42.484Z,5.05
2022-11-04T00:58:44.252Z,7.88
2022-11-04T01:03:51.403Z,9.05
2022-11-04T01:08:57.665Z,9.50
2022-11-04T01:13:59.721Z,9.98
2022-11-04T01:19:02.801Z,10.93
2022-11-04T01:24:05.041Z,10.02
2022-11-04T01:29:06.879Z,9.70
2022-11-04T01:34:09.107Z,9.45
2022-11-04T01:39:12.810Z,9.77
2022-11-04T01:44:42.483Z,9.90
2022-11-04T01:49:47.593Z,10.10
2022-11-04T01:54:51.481Z,9.18
2022-11-04T01:59:53.553Z,9.45
2022-11-04T02:04:58.625Z,9.68
2022-11-04T02:10:00.505Z,9.82
2022-11-04T02:15:02.774Z,10.05
2022-11-04T02:20:26.214Z,9.25
2022-11-04T02:25:30.792Z,8.95
2022-11-04T02:30:40.002Z,11.73
2022-11-04T02:35:44.577Z,17.30
2022-11-04T02:40:58.461Z,20.00
2022-11-04T02:46:08.185Z,20.40
2022-11-04T02:51:18.588Z,17.85
2022-11-04T02:56:22.992Z,17.50
2022-11-04T03:01:28.092Z,17.38
2022-11-04T03:06:32.554Z,19.70
2022-11-04T03:11:36.377Z,20.38
2022-11-04T03:16:42.793Z,19.60
2022-11-04T03:22:14.929Z,21.60
2022-11-04T03:27:54.272Z,19.38
2022-11-04T03:33:17.530Z,19.98
2022-11-04T03:38:21.355Z,20.20
2022-11-04T03:43:27.269Z,19.02
2022-11-04T03:48:29.972Z,19.02
2022-11-04T03:53:32.361Z,18.00
2022-11-04T03:58:46.055Z,18.45
2022-11-04T04:04:20.728Z,17.08
2022-11-04T04:09:35.518Z,17.25
2022-11-04T04:15:03.027Z,19.67
2022-11-04T04:20:10.882Z,21.23
2022-11-04T04:25:33.208Z,18.38
2022-11-04T04:30:36.143Z,18.75
2022-11-04T04:35:46.740Z,18.48
2022-11-04T04:41:17.592Z,18.92
2022-11-04T04:46:19.595Z,19.58
2022-11-04T04:51:22.515Z,21.85
2022-11-04T04:56:24.267Z,20.77
2022-11-04T05:01:26.113Z,21.77
2022-11-04T05:06:28.071Z,21.65
2022-11-04T05:11:29.823Z,20.85
2022-11-04T05:16:34.329Z,27.15
2022-11-04T05:21:38.407Z,19.30
2022-11-04T05:26:40.165Z,22.17
2022-11-04T05:31:42.041Z,25.73
2022-11-04T05:36:43.792Z,20.73
2022-11-04T05:41:45.600Z,22.70
2022-11-04T05:46:47.346Z,21.27
2022-11-04T05:51:49.121Z,21.33
2022-11-04T05:56:50.858Z,21.25
2022-11-04T06:01:52.743Z,19.75
2022-11-04T06:06:54.751Z,21.70
2022-11-04T06:11:56.493Z,19.98
2022-11-04T06:16:58.315Z,21.30
2022-11-04T06:22:00.476Z,21.80
2022-11-04T06:27:02.360Z,21.25
2022-11-04T06:32:04.427Z,22.52
2022-11-04T06:37:06.515Z,20.65
2022-11-04T06:42:08.397Z,20.90
2022-11-04T06:47:10.578Z,19.83
2022-11-04T06:52:12.386Z,19.27
2022-11-04T06:57:14.149Z,19.52
2022-11-04T07:02:15.994Z,20.95
2022-11-04T07:07:17.926Z,19.45
2022-11-04T07:12:19.721Z,22.13
2022-11-04T07:17:21.465Z,19.02
2022-11-04T07:22:23.208Z,18.52
2022-11-04T07:27:24.960Z,19.20
2022-11-04T07:32:26.804Z,19.65
2022-11-04T07:37:28.590Z,19.20
2022-11-04T07:42:30.412Z,22.42
2022-11-04T07:47:39.889Z,19.13
2022-11-04T07:52:41.649Z,19.17
2022-11-04T07:57:43.389Z,18.48
2022-11-04T08:02:46.889Z,19.83
2022-11-04T08:07:48.701Z,22.83
2022-11-04T08:12:52.329Z,20.55
2022-11-04T08:17:54.085Z,21.20
2022-11-04T08:22:55.830Z,18.88
2022-11-04T08:28:00.932Z,18.00
2022-11-04T08:33:03.157Z,17.35
2022-11-04T08:38:04.897Z,17.17
2022-11-04T08:43:07.068Z,16.33
2022-11-04T08:48:09.810Z,13.30
2022-11-04T08:53:12.586Z,15.80
2022-11-04T08:58:14.877Z,15.20
2022-11-04T09:03:16.901Z,15.70
2022-11-04T09:08:18.840Z,19.70
2022-11-04T09:13:20.611Z,19.73
2022-11-04T09:18:22.365Z,16.13
2022-11-04T09:23:24.109Z,14.77
2022-11-04T09:28:26.113Z,13.75
2022-11-04T09:33:27.913Z,13.48
2022-11-04T09:38:29.769Z,9.25
2022-11-04T09:43:45.945Z,9.48
2022-11-04T09:48:51.535Z,8.27
2022-11-04T09:54:00.024Z,8.13
2022-11-04T09:59:05.865Z,7.38
2022-11-04T10:04:29.022Z,7.25
2022-11-04T10:09:48.621Z,7.80
2022-11-04T10:15:01.799Z,7.03
2022-11-04T10:20:33.938Z,8.38
2022-11-04T10:25:49.255Z,6.18
2022-11-04T10:30:52.318Z,6.85
2022-11-04T10:36:03.767Z,6.75
2022-11-04T10:41:23.616Z,5.88
2022-11-04T10:46:42.408Z,5.82
2022-11-04T10:51:45.119Z,6.88
2022-11-04T10:56:52.502Z,7.30
2022-11-04T11:07:06.498Z,7.32
2022-11-04T11:12:48.757Z,5.95
2022-11-04T11:17:39.266Z,5.88
2022-11-04T11:22:43.875Z,6.70
2022-11-04T11:27:50.513Z,5.93
2022-11-04T11:32:58.744Z,4.88
2022-11-04T11:38:04.154Z,3.92
2022-11-04T11:43:06.389Z,3.33
2022-11-04T11:48:38.934Z,3.80
2022-11-04T11:53:57.522Z,3.58
2022-11-04T12:10:49.104Z,3.45
2022-11-04T12:16:10.857Z,3.65
2022-11-04T12:21:27.046Z,3.63
2022-11-04T12:27:07.813Z,4.15
2022-11-04T12:32:32.920Z,3.15
2022-11-04T12:37:57.976Z,3.40
2022-11-04T12:43:35.034Z,3.38
2022-11-04T12:48:57.365Z,3.72
2022-11-04T12:54:17.220Z,3.50
2022-11-04T12:59:33.342Z,3.47
2022-11-04T13:04:43.853Z,3.85
2022-11-04T13:09:54.322Z,3.53
2022-11-04T13:15:07.807Z,3.30
2022-11-04T13:20:15.474Z,3.67
2022-11-04T13:25:42.962Z,5.25
2022-11-04T13:31:04.282Z,4.22
2022-11-04T13:36:32.356Z,4.07
2022-11-04T13:41:50.782Z,4.70
2022-11-04T13:46:55.769Z,4.63
2022-11-04T13:52:02.393Z,5.25
2022-11-04T13:57:22.685Z,4.18
2022-11-04T14:02:32.517Z,3.50
2022-11-04T14:07:59.451Z,4.40
2022-11-04T14:13:31.342Z,4.10
2022-11-04T14:18:41.653Z,4.00
2022-11-04T14:23:46.851Z,4.50
2022-11-04T14:29:00.776Z,3.47
2022-11-04T14:34:03.129Z,4.05
2022-11-04T14:39:22.779Z,3.53
2022-11-04T14:44:35.197Z,3.55
2022-11-04T14:49:48.277Z,3.47
2022-11-04T14:55:11.737Z,3.90
2022-11-04T15:00:28.878Z,2.90
2022-11-04T15:05:33.431Z,3.20
2022-11-04T15:10:35.224Z,3.08
2022-11-04T15:15:41.738Z,2.95
2022-11-04T15:20:50.441Z,2.20
2022-11-04T15:25:52.192Z,3.60
2022-11-04T15:31:00.655Z,2.97
2022-11-04T15:36:03.053Z,3.33
2022-11-04T15:41:24.879Z,2.85
2022-11-04T15:46:28.270Z,2.95
2022-11-04T15:51:36.016Z,2.47
2022-11-04T15:56:50.659Z,2.58
2022-11-04T16:01:53.431Z,3.35
2022-11-04T16:07:20.823Z,4.65
2022-11-04T16:12:35.213Z,5.18
2022-11-04T16:17:44.872Z,5.03
2022-11-04T16:22:46.927Z,6.22
2022-11-04T16:27:49.224Z,3.80
2022-11-04T16:32:56.685Z,4.60
2022-11-04T16:38:00.901Z,3.15
2022-11-04T16:43:05.158Z,4.05
2022-11-04T16:48:08.046Z,4.07
2022-11-04T16:53:10.726Z,9.32
2022-11-04T16:58:22.641Z,12.60
2022-11-04T17:03:24.585Z,2.10
2022-11-04T17:08:27.372Z,2.10
2022-11-04T17:13:35.044Z,2.25
2022-11-04T17:18:38.335Z,2.75
2022-11-04T17:23:40.090Z,7.68
2022-11-04T17:28:42.029Z,2.70
2022-11-04T17:33:43.771Z,2.85
2022-11-04T17:38:46.763Z,4.32
2022-11-04T17:44:00.694Z,3.10
2022-11-04T17:49:03.201Z,2.80
2022-11-04T17:54:05.321Z,2.10
2022-11-04T17:59:08.413Z,3.72
2022-11-04T18:04:19.664Z,2.72
2022-11-04T18:09:21.506Z,2.22
2022-11-04T18:14:23.421Z,92.03
2022-11-04T18:19:26.746Z,5.35
2022-11-04T18:24:28.871Z,4.47
2022-11-04T18:29:30.709Z,2.25
2022-11-04T18:34:32.684Z,3.17
2022-11-04T18:39:34.509Z,6.43
2022-11-04T18:44:36.525Z,4.50
2022-11-04T18:49:38.301Z,7.35
2022-11-04T18:54:42.143Z,4.15
2022-11-04T18:59:43.959Z,2.95
2022-11-04T19:04:45.714Z,2.10
2022-11-04T19:09:48.040Z,2.17
2022-11-04T19:14:50.019Z,2.58
2022-11-04T19:19:51.926Z,2.78
2022-11-04T19:24:53.768Z,4.25
2022-11-04T19:29:55.859Z,4.95
2022-11-04T19:34:57.740Z,3.63
2022-11-04T19:39:59.498Z,3.67
2022-11-04T19:45:01.458Z,3.72
2022-11-04T19:50:03.343Z,4.95
2022-11-04T19:55:05.591Z,3.05
2022-11-04T20:00:07.990Z,2.80
2022-11-04T20:05:16.057Z,3.00
2022-11-04T20:10:17.812Z,3.40
2022-11-04T20:15:19.833Z,3.17
2022-11-04T20:20:21.667Z,4.55
2022-11-04T20:25:23.493Z,3.40
2022-11-04T20:30:26.749Z,3.00
2022-11-04T20:35:28.582Z,3.72
2022-11-04T20:40:30.539Z,3.80
2022-11-04T20:45:32.341Z,3.50
2022-11-04T20:50:36.206Z,3.90
2022-11-04T20:55:39.985Z,4.43
2022-11-04T21:00:41.826Z,3.58
2022-11-04T21:05:44.230Z,3.85
2022-11-04T21:10:49.829Z,4.22
2022-11-04T21:15:57.260Z,3.47
2022-11-04T21:21:02.713Z,3.92
2022-11-04T21:26:08.797Z,4.13
2022-11-04T21:31:12.343Z,3.50
2022-11-04T21:36:14.791Z,4.10
2022-11-04T21:41:21.144Z,4.15
2022-11-04T21:46:23.428Z,3.90
2022-11-04T21:51:29.054Z,3.70
2022-11-04T21:56:34.113Z,4.28
2022-11-04T22:01:36.063Z,3.72
2022-11-04T22:06:38.193Z,4.30
2022-11-04T22:11:40.041Z,4.80
2022-11-04T22:16:41.974Z,4.55
2022-11-04T22:21:45.373Z,4.43
2022-11-04T22:26:47.957Z,4.70
2022-11-04T22:31:49.926Z,4.78
2022-11-04T22:36:51.681Z,5.35
2022-11-04T22:41:53.437Z,4.93
2022-11-04T22:46:55.247Z,5.13
2022-11-04T22:51:57.142Z,5.53
2022-11-04T22:56:59.075Z,4.63
2022-11-04T23:02:00.999Z,5.57
2022-11-04T23:07:03.736Z,6.88
2022-11-04T23:12:24.313Z,7.88
2022-11-04T23:17:44.881Z,7.00
2022-11-04T23:23:05.134Z,5.85
2022-11-04T23:28:25.368Z,5.95
2022-11-04T23:33:45.972Z,6.35
2022-11-04T23:38:50.306Z,5.97
2022-11-04T23:43:52.641Z,8.55
2022-11-04T23:49:12.825Z,7.93
2022-11-04T23:54:33.391Z,7.97
2022-11-04T23:59:53.889Z,9.18
